sensor_id;sensor_type;location;lat;lon;timestamp;temperature;humidity
22968;DHT22;11650;48.106;-1.696;2023-07-09T00:01:41;20.70;99.90
22968;DHT22;11650;48.106;-1.696;2023-07-09T00:04:11;20.80;99.90
22968;DHT22;11650;48.106;-1.696;2023-07-09T00:06:37;20.80;99.90
22968;DHT22;11650;48.106;-1.696;2023-07-09T00:09:04;20.80;99.90
22968;DHT22;11650;48.106;-1.696;2023-07-09T00:11:30;20.70;99.90
22968;DHT22;11650;48.106;-1.696;2023-07-09T00:13:56;20.80;99.90
22968;DHT22;11650;48.106;-1.696;2023-07-09T00:16:25;20.80;99.90
22968;DHT22;11650;48.106;-1.696;2023-07-09T00:18:51;20.80;99.90
22968;DHT22;11650;48.106;-1.696;2023-07-09T00:21:18;20.70;99.90
22968;DHT22;11650;48.106;-1.696;2023-07-09T00:23:44;20.80;99.90
22968;DHT22;11650;48.106;-1.696;2023-07-09T00:26:13;20.80;99.90
22968;DHT22;11650;48.106;-1.696;2023-07-09T00:28:40;20.80;99.90
22968;DHT22;11650;48.106;-1.696;2023-07-09T00:31:12;20.70;99.90
22968;DHT22;11650;48.106;-1.696;2023-07-09T00:33:39;20.70;99.90
22968;DHT22;11650;48.106;-1.696;2023-07-09T00:36:15;20.70;99.90
22968;DHT22;11650;48.106;-1.696;2023-07-09T00:38:41;20.70;99.90
22968;DHT22;11650;48.106;-1.696;2023-07-09T00:41:18;20.50;99.90
22968;DHT22;11650;48.106;-1.696;2023-07-09T00:43:46;20.40;99.90
22968;DHT22;11650;48.106;-1.696;2023-07-09T00:48:54;20.30;99.90
22968;DHT22;11650;48.106;-1.696;2023-07-09T00:51:25;20.30;99.90
22968;DHT22;11650;48.106;-1.696;2023-07-09T00:53:58;20.40;99.90
22968;DHT22;11650;48.106;-1.696;2023-07-09T00:56:44;20.20;99.90
22968;DHT22;11650;48.106;-1.696;2023-07-09T00:59:15;20.20;99.90
22968;DHT22;11650;48.106;-1.696;2023-07-09T01:01:42;20.20;99.90
22968;DHT22;11650;48.106;-1.696;2023-07-09T01:04:09;20.20;99.90
22968;DHT22;11650;48.106;-1.696;2023-07-09T01:06:47;20.20;99.90
22968;DHT22;11650;48.106;-1.696;2023-07-09T01:09:15;20.30;99.90
22968;DHT22;11650;48.106;-1.696;2023-07-09T01:11:41;20.30;99.90
22968;DHT22;11650;48.106;-1.696;2023-07-09T01:14:09;20.20;99.90
22968;DHT22;11650;48.106;-1.696;2023-07-09T01:16:42;20.10;99.90
22968;DHT22;11650;48.106;-1.696;2023-07-09T01:19:08;20.10;99.90
22968;DHT22;11650;48.106;-1.696;2023-07-09T01:21:34;20.10;99.90
22968;DHT22;11650;48.106;-1.696;2023-07-09T01:24:15;20.10;99.90
22968;DHT22;11650;48.106;-1.696;2023-07-09T01:26:41;20.20;99.90
22968;DHT22;11650;48.106;-1.696;2023-07-09T01:29:08;20.10;99.90
22968;DHT22;11650;48.106;-1.696;2023-07-09T01:31:34;20.10;99.90
22968;DHT22;11650;48.106;-1.696;2023-07-09T01:34:01;20.10;99.90
22968;DHT22;11650;48.106;-1.696;2023-07-09T01:36:26;20.00;99.90
22968;DHT22;11650;48.106;-1.696;2023-07-09T01:38:55;20.00;99.90
22968;DHT22;11650;48.106;-1.696;2023-07-09T01:41:21;20.10;99.90
22968;DHT22;11650;48.106;-1.696;2023-07-09T01:43:47;20.00;99.90
22968;DHT22;11650;48.106;-1.696;2023-07-09T01:46:13;20.00;99.90
22968;DHT22;11650;48.106;-1.696;2023-07-09T01:48:39;19.90;99.90
22968;DHT22;11650;48.106;-1.696;2023-07-09T01:51:09;19.90;99.90
22968;DHT22;11650;48.106;-1.696;2023-07-09T01:53:36;19.90;99.90
22968;DHT22;11650;48.106;-1.696;2023-07-09T01:56:03;19.90;99.90
22968;DHT22;11650;48.106;-1.696;2023-07-09T01:58:29;19.90;99.90
22968;DHT22;11650;48.106;-1.696;2023-07-09T02:00:56;19.80;99.90
22968;DHT22;11650;48.106;-1.696;2023-07-09T02:03:21;19.80;99.90
22968;DHT22;11650;48.106;-1.696;2023-07-09T02:05:53;19.80;99.90
22968;DHT22;11650;48.106;-1.696;2023-07-09T02:08:19;19.70;99.90
22968;DHT22;11650;48.106;-1.696;2023-07-09T02:10:45;19.80;99.90
22968;DHT22;11650;48.106;-1.696;2023-07-09T02:13:13;19.80;99.90
22968;DHT22;11650;48.106;-1.696;2023-07-09T02:15:39;20.00;99.90
22968;DHT22;11650;48.106;-1.696;2023-07-09T02:18:09;19.90;99.90
22968;DHT22;11650;48.106;-1.696;2023-07-09T02:20:34;20.00;99.90
22968;DHT22;11650;48.106;-1.696;2023-07-09T02:23:00;20.00;99.90
22968;DHT22;11650;48.106;-1.696;2023-07-09T02:25:26;20.00;99.90
22968;DHT22;11650;48.106;-1.696;2023-07-09T02:27:51;19.90;99.90
22968;DHT22;11650;48.106;-1.696;2023-07-09T02:30:17;19.80;99.90
22968;DHT22;11650;48.106;-1.696;2023-07-09T02:32:42;19.80;99.90
22968;DHT22;11650;48.106;-1.696;2023-07-09T02:35:08;19.80;99.90
22968;DHT22;11650;48.106;-1.696;2023-07-09T02:37:34;19.70;99.90
22968;DHT22;11650;48.106;-1.696;2023-07-09T02:39:59;19.70;99.90
22968;DHT22;11650;48.106;-1.696;2023-07-09T02:42:25;19.70;99.90
22968;DHT22;11650;48.106;-1.696;2023-07-09T02:44:51;19.70;99.90
22968;DHT22;11650;48.106;-1.696;2023-07-09T02:47:17;19.80;99.90
22968;DHT22;11650;48.106;-1.696;2023-07-09T02:49:43;19.70;99.90
22968;DHT22;11650;48.106;-1.696;2023-07-09T02:52:09;19.70;99.90
22968;DHT22;11650;48.106;-1.696;2023-07-09T02:54:34;19.80;99.90
22968;DHT22;11650;48.106;-1.696;2023-07-09T02:57:00;19.80;99.90
22968;DHT22;11650;48.106;-1.696;2023-07-09T02:59:26;19.80;99.90
22968;DHT22;11650;48.106;-1.696;2023-07-09T03:01:53;19.90;99.90
22968;DHT22;11650;48.106;-1.696;2023-07-09T03:04:18;19.90;99.90
22968;DHT22;11650;48.106;-1.696;2023-07-09T03:06:46;19.90;99.90
22968;DHT22;11650;48.106;-1.696;2023-07-09T03:09:12;19.80;99.90
22968;DHT22;11650;48.106;-1.696;2023-07-09T03:11:37;19.80;99.90
22968;DHT22;11650;48.106;-1.696;2023-07-09T03:14:03;19.80;99.90
22968;DHT22;11650;48.106;-1.696;2023-07-09T03:16:31;19.80;99.90
22968;DHT22;11650;48.106;-1.696;2023-07-09T03:18:57;19.80;99.90
22968;DHT22;11650;48.106;-1.696;2023-07-09T03:21:24;19.80;99.90
22968;DHT22;11650;48.106;-1.696;2023-07-09T03:23:51;19.90;99.90
22968;DHT22;11650;48.106;-1.696;2023-07-09T03:26:17;19.90;99.90
22968;DHT22;11650;48.106;-1.696;2023-07-09T03:28:43;19.80;99.90
22968;DHT22;11650;48.106;-1.696;2023-07-09T03:31:09;19.90;99.90
22968;DHT22;11650;48.106;-1.696;2023-07-09T03:33:34;19.90;99.90
22968;DHT22;11650;48.106;-1.696;2023-07-09T03:36:00;19.80;99.90
22968;DHT22;11650;48.106;-1.696;2023-07-09T03:38:26;19.90;99.90
22968;DHT22;11650;48.106;-1.696;2023-07-09T03:40:55;19.90;99.90
22968;DHT22;11650;48.106;-1.696;2023-07-09T03:43:21;19.80;99.90
22968;DHT22;11650;48.106;-1.696;2023-07-09T03:45:47;19.90;99.90
22968;DHT22;11650;48.106;-1.696;2023-07-09T03:48:15;19.70;99.90
22968;DHT22;11650;48.106;-1.696;2023-07-09T03:50:42;19.70;99.90
22968;DHT22;11650;48.106;-1.696;2023-07-09T03:53:08;19.70;99.90
22968;DHT22;11650;48.106;-1.696;2023-07-09T03:55:34;19.60;99.90
22968;DHT22;11650;48.106;-1.696;2023-07-09T03:58:00;19.60;99.90
22968;DHT22;11650;48.106;-1.696;2023-07-09T04:00:28;19.60;99.90
22968;DHT22;11650;48.106;-1.696;2023-07-09T04:02:54;19.50;99.90
22968;DHT22;11650;48.106;-1.696;2023-07-09T04:05:22;19.40;99.90
22968;DHT22;11650;48.106;-1.696;2023-07-09T04:07:48;19.50;99.90
22968;DHT22;11650;48.106;-1.696;2023-07-09T04:10:14;19.40;99.90
22968;DHT22;11650;48.106;-1.696;2023-07-09T04:12:40;19.40;99.90
22968;DHT22;11650;48.106;-1.696;2023-07-09T04:15:06;19.40;99.90
22968;DHT22;11650;48.106;-1.696;2023-07-09T04:17:32;19.50;99.90
22968;DHT22;11650;48.106;-1.696;2023-07-09T04:19:58;19.50;99.90
22968;DHT22;11650;48.106;-1.696;2023-07-09T04:22:25;19.50;99.90
22968;DHT22;11650;48.106;-1.696;2023-07-09T04:24:50;19.60;99.90
22968;DHT22;11650;48.106;-1.696;2023-07-09T04:27:18;19.70;99.90
22968;DHT22;11650;48.106;-1.696;2023-07-09T04:29:43;19.70;99.90
22968;DHT22;11650;48.106;-1.696;2023-07-09T04:32:13;19.60;99.90
22968;DHT22;11650;48.106;-1.696;2023-07-09T04:34:39;19.70;99.90
22968;DHT22;11650;48.106;-1.696;2023-07-09T04:37:10;19.60;99.90
22968;DHT22;11650;48.106;-1.696;2023-07-09T04:39:37;19.60;99.90
22968;DHT22;11650;48.106;-1.696;2023-07-09T04:42:05;19.60;99.90
22968;DHT22;11650;48.106;-1.696;2023-07-09T04:44:30;19.70;99.90
22968;DHT22;11650;48.106;-1.696;2023-07-09T04:46:56;19.70;99.90
22968;DHT22;11650;48.106;-1.696;2023-07-09T04:49:22;19.60;99.90
22968;DHT22;11650;48.106;-1.696;2023-07-09T04:51:48;19.70;99.90
22968;DHT22;11650;48.106;-1.696;2023-07-09T04:54:14;19.70;99.90
22968;DHT22;11650;48.106;-1.696;2023-07-09T04:56:41;19.70;99.90
22968;DHT22;11650;48.106;-1.696;2023-07-09T04:59:10;19.70;99.90
22968;DHT22;11650;48.106;-1.696;2023-07-09T05:01:36;19.70;99.90
22968;DHT22;11650;48.106;-1.696;2023-07-09T05:04:01;19.70;99.90
22968;DHT22;11650;48.106;-1.696;2023-07-09T05:06:27;19.70;99.90
22968;DHT22;11650;48.106;-1.696;2023-07-09T05:08:52;19.70;99.90
22968;DHT22;11650;48.106;-1.696;2023-07-09T05:11:18;19.70;99.90
22968;DHT22;11650;48.106;-1.696;2023-07-09T05:13:44;19.70;99.90
22968;DHT22;11650;48.106;-1.696;2023-07-09T05:16:09;19.70;99.90
22968;DHT22;11650;48.106;-1.696;2023-07-09T05:18:35;19.70;99.90
22968;DHT22;11650;48.106;-1.696;2023-07-09T05:21:01;19.70;99.90
22968;DHT22;11650;48.106;-1.696;2023-07-09T05:23:27;19.60;99.90
22968;DHT22;11650;48.106;-1.696;2023-07-09T05:25:59;19.50;99.90
22968;DHT22;11650;48.106;-1.696;2023-07-09T05:28:26;19.60;99.90
22968;DHT22;11650;48.106;-1.696;2023-07-09T05:30:52;19.60;99.90
22968;DHT22;11650;48.106;-1.696;2023-07-09T05:33:18;19.60;99.90
22968;DHT22;11650;48.106;-1.696;2023-07-09T05:35:44;19.50;99.90
22968;DHT22;11650;48.106;-1.696;2023-07-09T05:38:10;19.50;99.90
22968;DHT22;11650;48.106;-1.696;2023-07-09T05:40:36;19.40;99.90
22968;DHT22;11650;48.106;-1.696;2023-07-09T05:43:02;19.40;99.90
22968;DHT22;11650;48.106;-1.696;2023-07-09T05:45:27;19.40;99.90
22968;DHT22;11650;48.106;-1.696;2023-07-09T05:47:53;19.30;99.90
22968;DHT22;11650;48.106;-1.696;2023-07-09T05:50:19;19.30;99.90
22968;DHT22;11650;48.106;-1.696;2023-07-09T05:52:44;19.40;99.90
22968;DHT22;11650;48.106;-1.696;2023-07-09T05:55:11;19.50;99.90
22968;DHT22;11650;48.106;-1.696;2023-07-09T05:57:38;19.50;99.90
22968;DHT22;11650;48.106;-1.696;2023-07-09T06:00:04;19.50;99.90
22968;DHT22;11650;48.106;-1.696;2023-07-09T06:02:30;19.70;99.90
22968;DHT22;11650;48.106;-1.696;2023-07-09T06:04:56;19.80;99.90
22968;DHT22;11650;48.106;-1.696;2023-07-09T06:07:23;19.90;99.90
22968;DHT22;11650;48.106;-1.696;2023-07-09T06:09:49;20.00;99.90
22968;DHT22;11650;48.106;-1.696;2023-07-09T06:12:15;20.10;99.90
22968;DHT22;11650;48.106;-1.696;2023-07-09T06:14:41;20.10;99.90
22968;DHT22;11650;48.106;-1.696;2023-07-09T06:17:06;20.00;99.90
22968;DHT22;11650;48.106;-1.696;2023-07-09T06:19:32;20.00;99.90
22968;DHT22;11650;48.106;-1.696;2023-07-09T06:21:58;19.90;99.90
22968;DHT22;11650;48.106;-1.696;2023-07-09T06:24:24;20.00;99.90
22968;DHT22;11650;48.106;-1.696;2023-07-09T06:26:49;20.00;99.90
22968;DHT22;11650;48.106;-1.696;2023-07-09T06:29:15;20.00;99.90
22968;DHT22;11650;48.106;-1.696;2023-07-09T06:31:40;20.00;99.90
22968;DHT22;11650;48.106;-1.696;2023-07-09T06:34:08;20.10;99.90
22968;DHT22;11650;48.106;-1.696;2023-07-09T06:36:35;20.10;99.90
22968;DHT22;11650;48.106;-1.696;2023-07-09T06:39:01;20.20;99.90
22968;DHT22;11650;48.106;-1.696;2023-07-09T06:41:26;20.30;99.90
22968;DHT22;11650;48.106;-1.696;2023-07-09T06:43:53;20.20;99.90
22968;DHT22;11650;48.106;-1.696;2023-07-09T06:46:19;20.10;99.90
22968;DHT22;11650;48.106;-1.696;2023-07-09T06:48:45;20.20;99.90
22968;DHT22;11650;48.106;-1.696;2023-07-09T06:51:11;20.20;99.90
22968;DHT22;11650;48.106;-1.696;2023-07-09T06:53:37;20.20;99.90
22968;DHT22;11650;48.106;-1.696;2023-07-09T06:56:03;20.30;99.90
22968;DHT22;11650;48.106;-1.696;2023-07-09T06:58:31;20.40;99.90
22968;DHT22;11650;48.106;-1.696;2023-07-09T07:00:57;20.50;99.90
22968;DHT22;11650;48.106;-1.696;2023-07-09T07:03:24;20.50;99.90
22968;DHT22;11650;48.106;-1.696;2023-07-09T07:05:52;20.60;99.90
22968;DHT22;11650;48.106;-1.696;2023-07-09T07:08:20;20.60;99.90
22968;DHT22;11650;48.106;-1.696;2023-07-09T07:10:48;20.50;99.90
22968;DHT22;11650;48.106;-1.696;2023-07-09T07:13:13;20.50;99.90
22968;DHT22;11650;48.106;-1.696;2023-07-09T07:15:39;20.40;99.90
22968;DHT22;11650;48.106;-1.696;2023-07-09T07:18:06;20.40;99.90
22968;DHT22;11650;48.106;-1.696;2023-07-09T07:20:33;20.30;99.90
22968;DHT22;11650;48.106;-1.696;2023-07-09T07:22:59;20.40;99.90
22968;DHT22;11650;48.106;-1.696;2023-07-09T07:25:24;20.40;99.90
22968;DHT22;11650;48.106;-1.696;2023-07-09T07:27:50;20.40;99.90
22968;DHT22;11650;48.106;-1.696;2023-07-09T07:30:16;20.50;99.90
22968;DHT22;11650;48.106;-1.696;2023-07-09T07:32:44;20.50;99.90
22968;DHT22;11650;48.106;-1.696;2023-07-09T07:35:10;20.60;99.90
22968;DHT22;11650;48.106;-1.696;2023-07-09T07:37:37;20.70;99.90
22968;DHT22;11650;48.106;-1.696;2023-07-09T07:40:03;20.60;99.90
22968;DHT22;11650;48.106;-1.696;2023-07-09T07:42:30;20.70;99.90
22968;DHT22;11650;48.106;-1.696;2023-07-09T07:44:56;20.80;99.90
22968;DHT22;11650;48.106;-1.696;2023-07-09T07:47:21;20.90;99.90
22968;DHT22;11650;48.106;-1.696;2023-07-09T07:49:47;20.90;99.90
22968;DHT22;11650;48.106;-1.696;2023-07-09T07:52:13;21.10;99.90
22968;DHT22;11650;48.106;-1.696;2023-07-09T07:54:39;21.20;99.90
22968;DHT22;11650;48.106;-1.696;2023-07-09T07:57:05;21.30;99.90
22968;DHT22;11650;48.106;-1.696;2023-07-09T07:59:30;21.20;99.90
22968;DHT22;11650;48.106;-1.696;2023-07-09T08:02:00;21.30;99.90
22968;DHT22;11650;48.106;-1.696;2023-07-09T08:04:26;21.30;99.90
22968;DHT22;11650;48.106;-1.696;2023-07-09T08:06:51;21.30;99.90
22968;DHT22;11650;48.106;-1.696;2023-07-09T08:09:17;21.40;99.90
22968;DHT22;11650;48.106;-1.696;2023-07-09T08:11:43;21.60;99.90
22968;DHT22;11650;48.106;-1.696;2023-07-09T08:14:10;21.60;99.90
22968;DHT22;11650;48.106;-1.696;2023-07-09T08:16:35;21.40;99.90
22968;DHT22;11650;48.106;-1.696;2023-07-09T08:19:01;21.40;99.90
22968;DHT22;11650;48.106;-1.696;2023-07-09T08:21:27;21.40;99.90
22968;DHT22;11650;48.106;-1.696;2023-07-09T08:23:53;21.30;99.90
22968;DHT22;11650;48.106;-1.696;2023-07-09T08:26:18;21.30;99.90
22968;DHT22;11650;48.106;-1.696;2023-07-09T08:28:44;21.30;99.90
22968;DHT22;11650;48.106;-1.696;2023-07-09T08:31:09;21.30;99.90
22968;DHT22;11650;48.106;-1.696;2023-07-09T08:33:35;21.30;99.90
22968;DHT22;11650;48.106;-1.696;2023-07-09T08:36:02;21.30;99.90
22968;DHT22;11650;48.106;-1.696;2023-07-09T08:38:27;21.20;99.90
22968;DHT22;11650;48.106;-1.696;2023-07-09T08:41:35;21.00;99.90
22968;DHT22;11650;48.106;-1.696;2023-07-09T08:49:24;20.90;99.90
22968;DHT22;11650;48.106;-1.696;2023-07-09T08:51:52;21.00;99.90
22968;DHT22;11650;48.106;-1.696;2023-07-09T08:54:31;21.20;99.90
22968;DHT22;11650;48.106;-1.696;2023-07-09T08:57:19;21.30;99.90
22968;DHT22;11650;48.106;-1.696;2023-07-09T08:59:46;21.20;99.90
22968;DHT22;11650;48.106;-1.696;2023-07-09T09:02:27;21.20;99.90
22968;DHT22;11650;48.106;-1.696;2023-07-09T09:04:55;21.30;99.90
22968;DHT22;11650;48.106;-1.696;2023-07-09T09:07:35;21.20;99.90
22968;DHT22;11650;48.106;-1.696;2023-07-09T09:10:04;21.20;99.90
22968;DHT22;11650;48.106;-1.696;2023-07-09T09:15:19;21.10;99.90
22968;DHT22;11650;48.106;-1.696;2023-07-09T09:17:51;21.10;99.90
22968;DHT22;11650;48.106;-1.696;2023-07-09T09:20:22;21.20;99.90
22968;DHT22;11650;48.106;-1.696;2023-07-09T09:25:30;21.20;99.90
22968;DHT22;11650;48.106;-1.696;2023-07-09T09:27:56;21.30;99.90
22968;DHT22;11650;48.106;-1.696;2023-07-09T09:30:23;21.20;99.90
22968;DHT22;11650;48.106;-1.696;2023-07-09T09:32:57;21.20;99.90
22968;DHT22;11650;48.106;-1.696;2023-07-09T09:35:29;21.20;99.90
22968;DHT22;11650;48.106;-1.696;2023-07-09T09:37:57;21.30;99.90
22968;DHT22;11650;48.106;-1.696;2023-07-09T09:40:24;21.30;99.90
22968;DHT22;11650;48.106;-1.696;2023-07-09T09:42:52;21.40;99.90
22968;DHT22;11650;48.106;-1.696;2023-07-09T09:45:24;21.40;99.90
22968;DHT22;11650;48.106;-1.696;2023-07-09T09:47:50;21.40;99.90
22968;DHT22;11650;48.106;-1.696;2023-07-09T09:50:17;21.30;99.90
22968;DHT22;11650;48.106;-1.696;2023-07-09T09:52:44;21.20;99.90
22968;DHT22;11650;48.106;-1.696;2023-07-09T09:55:16;21.10;99.90
22968;DHT22;11650;48.106;-1.696;2023-07-09T09:57:48;21.10;99.90
22968;DHT22;11650;48.106;-1.696;2023-07-09T10:00:15;21.30;99.90
22968;DHT22;11650;48.106;-1.696;2023-07-09T10:02:41;21.30;99.90
22968;DHT22;11650;48.106;-1.696;2023-07-09T10:05:19;21.40;99.90
22968;DHT22;11650;48.106;-1.696;2023-07-09T10:08:13;21.70;99.90
22968;DHT22;11650;48.106;-1.696;2023-07-09T10:10:42;21.90;99.90
22968;DHT22;11650;48.106;-1.696;2023-07-09T10:13:24;21.60;99.90
22968;DHT22;11650;48.106;-1.696;2023-07-09T10:16:07;21.50;99.90
22968;DHT22;11650;48.106;-1.696;2023-07-09T10:26:16;20.90;99.90
22968;DHT22;11650;48.106;-1.696;2023-07-09T10:34:18;20.80;99.90
22968;DHT22;11650;48.106;-1.696;2023-07-09T10:39:48;21.00;99.90
22968;DHT22;11650;48.106;-1.696;2023-07-09T10:44:56;20.80;99.90
22968;DHT22;11650;48.106;-1.696;2023-07-09T10:47:32;20.70;99.90
22968;DHT22;11650;48.106;-1.696;2023-07-09T10:50:01;20.80;99.90
22968;DHT22;11650;48.106;-1.696;2023-07-09T10:52:33;20.80;99.90
22968;DHT22;11650;48.106;-1.696;2023-07-09T10:55:17;20.90;99.90
22968;DHT22;11650;48.106;-1.696;2023-07-09T10:58:05;21.00;99.90
22968;DHT22;11650;48.106;-1.696;2023-07-09T11:00:39;21.00;99.90
22968;DHT22;11650;48.106;-1.696;2023-07-09T11:03:18;21.10;99.90
22968;DHT22;11650;48.106;-1.696;2023-07-09T11:05:45;21.20;99.90
22968;DHT22;11650;48.106;-1.696;2023-07-09T11:08:16;21.20;99.90
22968;DHT22;11650;48.106;-1.696;2023-07-09T11:10:53;21.40;99.90
22968;DHT22;11650;48.106;-1.696;2023-07-09T11:13:37;21.60;99.90
22968;DHT22;11650;48.106;-1.696;2023-07-09T11:16:04;21.60;99.90
22968;DHT22;11650;48.106;-1.696;2023-07-09T11:18:34;21.50;99.90
22968;DHT22;11650;48.106;-1.696;2023-07-09T11:21:08;21.60;99.90
22968;DHT22;11650;48.106;-1.696;2023-07-09T11:23:52;21.60;99.90
22968;DHT22;11650;48.106;-1.696;2023-07-09T11:29:14;21.70;99.90
22968;DHT22;11650;48.106;-1.696;2023-07-09T11:31:42;21.80;99.90
22968;DHT22;11650;48.106;-1.696;2023-07-09T11:34:19;21.80;99.90
22968;DHT22;11650;48.106;-1.696;2023-07-09T11:36:58;22.00;99.90
22968;DHT22;11650;48.106;-1.696;2023-07-09T11:41:58;22.50;99.90
22968;DHT22;11650;48.106;-1.696;2023-07-09T11:44:25;22.40;99.90
22968;DHT22;11650;48.106;-1.696;2023-07-09T11:47:21;22.30;99.90
22968;DHT22;11650;48.106;-1.696;2023-07-09T11:49:59;22.30;99.90
22968;DHT22;11650;48.106;-1.696;2023-07-09T11:52:33;22.60;99.90
22968;DHT22;11650;48.106;-1.696;2023-07-09T11:57:56;22.60;99.90
22968;DHT22;11650;48.106;-1.696;2023-07-09T12:00:22;22.50;99.90
22968;DHT22;11650;48.106;-1.696;2023-07-09T12:02:49;22.20;99.90
22968;DHT22;11650;48.106;-1.696;2023-07-09T12:05:20;22.20;99.90
22968;DHT22;11650;48.106;-1.696;2023-07-09T12:07:46;22.10;99.90
22968;DHT22;11650;48.106;-1.696;2023-07-09T12:10:26;21.90;99.90
22968;DHT22;11650;48.106;-1.696;2023-07-09T12:12:57;22.00;99.90
22968;DHT22;11650;48.106;-1.696;2023-07-09T12:15:28;22.20;99.90
22968;DHT22;11650;48.106;-1.696;2023-07-09T12:18:03;22.40;99.90
22968;DHT22;11650;48.106;-1.696;2023-07-09T12:20:33;22.70;99.90
22968;DHT22;11650;48.106;-1.696;2023-07-09T12:23:00;23.00;99.90
22968;DHT22;11650;48.106;-1.696;2023-07-09T12:25:28;23.60;99.90
22968;DHT22;11650;48.106;-1.696;2023-07-09T12:27:55;24.00;99.90
22968;DHT22;11650;48.106;-1.696;2023-07-09T12:30:20;24.60;99.90
22968;DHT22;11650;48.106;-1.696;2023-07-09T12:32:48;24.50;99.90
22968;DHT22;11650;48.106;-1.696;2023-07-09T12:35:20;24.80;99.90
22968;DHT22;11650;48.106;-1.696;2023-07-09T12:37:48;25.30;99.90
22968;DHT22;11650;48.106;-1.696;2023-07-09T12:40:17;25.30;99.90
22968;DHT22;11650;48.106;-1.696;2023-07-09T12:42:44;25.70;99.90
22968;DHT22;11650;48.106;-1.696;2023-07-09T12:45:18;25.60;99.90
22968;DHT22;11650;48.106;-1.696;2023-07-09T12:47:47;25.50;99.90
22968;DHT22;11650;48.106;-1.696;2023-07-09T12:50:40;25.70;99.90
22968;DHT22;11650;48.106;-1.696;2023-07-09T12:53:20;25.40;99.90
22968;DHT22;11650;48.106;-1.696;2023-07-09T12:55:47;25.40;99.90
22968;DHT22;11650;48.106;-1.696;2023-07-09T12:58:25;25.50;99.90
22968;DHT22;11650;48.106;-1.696;2023-07-09T13:00:55;25.40;99.90
22968;DHT22;11650;48.106;-1.696;2023-07-09T13:03:28;25.50;99.90
22968;DHT22;11650;48.106;-1.696;2023-07-09T13:06:00;25.60;99.90
22968;DHT22;11650;48.106;-1.696;2023-07-09T13:08:28;25.40;99.90
22968;DHT22;11650;48.106;-1.696;2023-07-09T13:10:54;25.40;99.90
22968;DHT22;11650;48.106;-1.696;2023-07-09T13:13:22;25.80;99.90
22968;DHT22;11650;48.106;-1.696;2023-07-09T13:15:56;26.10;99.90
22968;DHT22;11650;48.106;-1.696;2023-07-09T13:18:25;26.00;99.90
22968;DHT22;11650;48.106;-1.696;2023-07-09T13:20:52;26.10;99.90
22968;DHT22;11650;48.106;-1.696;2023-07-09T13:23:19;26.10;99.90
22968;DHT22;11650;48.106;-1.696;2023-07-09T13:25:46;26.10;99.90
22968;DHT22;11650;48.106;-1.696;2023-07-09T13:28:27;26.20;99.90
22968;DHT22;11650;48.106;-1.696;2023-07-09T13:30:58;26.80;99.90
22968;DHT22;11650;48.106;-1.696;2023-07-09T13:33:25;27.10;99.90
22968;DHT22;11650;48.106;-1.696;2023-07-09T13:35:51;27.50;99.90
22968;DHT22;11650;48.106;-1.696;2023-07-09T13:38:21;27.70;99.90
22968;DHT22;11650;48.106;-1.696;2023-07-09T13:40:49;27.30;99.90
22968;DHT22;11650;48.106;-1.696;2023-07-09T13:43:19;26.60;99.90
22968;DHT22;11650;48.106;-1.696;2023-07-09T13:45:45;26.20;99.90
22968;DHT22;11650;48.106;-1.696;2023-07-09T13:48:16;26.10;99.90
22968;DHT22;11650;48.106;-1.696;2023-07-09T13:50:44;26.20;99.90
22968;DHT22;11650;48.106;-1.696;2023-07-09T13:53:16;26.70;99.90
22968;DHT22;11650;48.106;-1.696;2023-07-09T13:55:42;27.20;99.90
22968;DHT22;11650;48.106;-1.696;2023-07-09T13:58:13;27.50;99.90
22968;DHT22;11650;48.106;-1.696;2023-07-09T14:00:41;27.80;99.90
22968;DHT22;11650;48.106;-1.696;2023-07-09T14:03:26;27.40;99.90
22968;DHT22;11650;48.106;-1.696;2023-07-09T14:05:53;27.10;99.90
22968;DHT22;11650;48.106;-1.696;2023-07-09T14:08:20;27.40;99.90
22968;DHT22;11650;48.106;-1.696;2023-07-09T14:10:47;27.70;99.90
22968;DHT22;11650;48.106;-1.696;2023-07-09T14:13:16;27.30;99.90
22968;DHT22;11650;48.106;-1.696;2023-07-09T14:15:42;27.50;99.90
22968;DHT22;11650;48.106;-1.696;2023-07-09T14:18:18;28.70;99.90
22968;DHT22;11650;48.106;-1.696;2023-07-09T14:20:44;28.60;99.90
22968;DHT22;11650;48.106;-1.696;2023-07-09T14:23:11;28.70;99.90
22968;DHT22;11650;48.106;-1.696;2023-07-09T14:25:38;28.70;99.90
22968;DHT22;11650;48.106;-1.696;2023-07-09T14:28:09;28.50;99.90
22968;DHT22;11650;48.106;-1.696;2023-07-09T14:30:35;29.00;99.90
22968;DHT22;11650;48.106;-1.696;2023-07-09T14:33:01;28.70;99.90
22968;DHT22;11650;48.106;-1.696;2023-07-09T14:35:26;28.60;99.90
22968;DHT22;11650;48.106;-1.696;2023-07-09T14:37:53;28.00;99.90
22968;DHT22;11650;48.106;-1.696;2023-07-09T14:40:25;28.10;99.90
22968;DHT22;11650;48.106;-1.696;2023-07-09T14:42:50;28.70;99.90
22968;DHT22;11650;48.106;-1.696;2023-07-09T14:45:22;28.40;99.90
22968;DHT22;11650;48.106;-1.696;2023-07-09T14:47:49;29.10;99.90
22968;DHT22;11650;48.106;-1.696;2023-07-09T14:50:15;29.70;99.90
22968;DHT22;11650;48.106;-1.696;2023-07-09T14:52:42;29.50;99.90
22968;DHT22;11650;48.106;-1.696;2023-07-09T14:55:16;28.50;99.90
22968;DHT22;11650;48.106;-1.696;2023-07-09T14:57:42;28.70;99.90
22968;DHT22;11650;48.106;-1.696;2023-07-09T15:00:19;29.40;99.90
22968;DHT22;11650;48.106;-1.696;2023-07-09T15:02:50;28.40;99.90
22968;DHT22;11650;48.106;-1.696;2023-07-09T15:05:19;28.70;99.90
22968;DHT22;11650;48.106;-1.696;2023-07-09T15:07:45;28.60;99.90
22968;DHT22;11650;48.106;-1.696;2023-07-09T15:10:22;27.90;99.90
22968;DHT22;11650;48.106;-1.696;2023-07-09T15:12:48;27.70;99.90
22968;DHT22;11650;48.106;-1.696;2023-07-09T15:15:29;27.80;99.90
22968;DHT22;11650;48.106;-1.696;2023-07-09T15:17:56;28.20;99.90
22968;DHT22;11650;48.106;-1.696;2023-07-09T15:20:23;28.30;99.90
22968;DHT22;11650;48.106;-1.696;2023-07-09T15:22:52;30.20;99.90
22968;DHT22;11650;48.106;-1.696;2023-07-09T15:25:23;30.40;99.90
22968;DHT22;11650;48.106;-1.696;2023-07-09T15:27:50;30.20;99.90
22968;DHT22;11650;48.106;-1.696;2023-07-09T15:30:18;29.30;99.90
22968;DHT22;11650;48.106;-1.696;2023-07-09T15:32:46;28.60;99.90
22968;DHT22;11650;48.106;-1.696;2023-07-09T15:35:17;28.50;99.90
22968;DHT22;11650;48.106;-1.696;2023-07-09T15:37:43;28.10;99.90
22968;DHT22;11650;48.106;-1.696;2023-07-09T15:40:17;28.30;99.90
22968;DHT22;11650;48.106;-1.696;2023-07-09T15:42:44;29.40;99.90
22968;DHT22;11650;48.106;-1.696;2023-07-09T15:45:17;30.40;99.90
22968;DHT22;11650;48.106;-1.696;2023-07-09T15:47:44;30.50;99.90
22968;DHT22;11650;48.106;-1.696;2023-07-09T15:50:20;30.10;99.90
22968;DHT22;11650;48.106;-1.696;2023-07-09T15:52:47;29.00;99.90
22968;DHT22;11650;48.106;-1.696;2023-07-09T15:55:18;28.20;99.90
22968;DHT22;11650;48.106;-1.696;2023-07-09T15:57:45;28.70;99.90
22968;DHT22;11650;48.106;-1.696;2023-07-09T16:00:26;29.40;99.90
22968;DHT22;11650;48.106;-1.696;2023-07-09T16:02:53;29.50;99.90
22968;DHT22;11650;48.106;-1.696;2023-07-09T16:05:24;30.00;99.90